Time;durP1;ratioP1;P1;durP2;ratioP2;P2;SDS_P1;SDS_P2;PMS_P1;PMS_P2;Temp;Humidity;BMP_temperature;BMP_pressure;BME280_temperature;BME280_humidity;BME280_pressure;Samples;Min_cycle;Max_cycle;Signal;HPM_P1;HPM_P2
2023/03/22 00:00:05;;;;;;;12.77;10.37;;;;;;;8.73;100.00;101007.94;5044282;28;20231;-69
2023/03/22 00:02:31;;;;;;;14.13;10.83;;;;;;;8.71;100.00;101007.00;5045313;28;20226;-70
2023/03/22 00:04:57;;;;;;;17.07;10.77;;;;;;;8.68;100.00;101004.38;5044518;28;20190;-70
2023/03/22 00:07:22;;;;;;;15.90;10.10;;;;;;;8.61;100.00;101005.00;5044971;28;20216;-70
2023/03/22 00:09:48;;;;;;;14.77;10.97;;;;;;;8.58;100.00;101004.94;5040179;28;20199;-72
2023/03/22 00:12:14;;;;;;;15.03;10.67;;;;;;;8.56;100.00;101000.59;5044026;28;20220;-70
2023/03/22 00:14:40;;;;;;;15.27;11.23;;;;;;;8.53;100.00;101001.34;5041989;28;20194;-71
2023/03/22 00:17:05;;;;;;;15.47;11.77;;;;;;;8.49;100.00;100997.00;5030431;28;20189;-69
2023/03/22 00:19:32;;;;;;;15.07;10.93;;;;;;;8.45;100.00;100997.75;5047163;28;20232;-69
2023/03/22 00:22:00;;;;;;;18.63;11.70;;;;;;;8.40;100.00;101000.97;5041498;28;20221;-72
2023/03/22 00:24:25;;;;;;;20.50;12.67;;;;;;;8.36;100.00;100986.38;5042808;28;20373;-71
2023/03/22 00:26:50;;;;;;;17.70;12.47;;;;;;;8.33;100.00;100982.06;5042134;28;20297;-74
2023/03/22 00:29:16;;;;;;;18.57;12.27;;;;;;;8.29;100.00;100992.97;5034379;28;20251;-72
2023/03/22 00:31:41;;;;;;;16.07;12.53;;;;;;;8.26;100.00;100981.81;5028653;28;20240;-71
2023/03/22 00:34:07;;;;;;;17.10;12.13;;;;;;;8.25;100.00;100986.03;5026001;28;20219;-72
2023/03/22 00:36:32;;;;;;;16.77;12.30;;;;;;;8.23;100.00;100974.94;5041360;28;20246;-70
2023/03/22 00:38:58;;;;;;;17.10;12.27;;;;;;;8.22;100.00;100974.88;5040734;28;20190;-72
2023/03/22 00:41:24;;;;;;;17.10;13.07;;;;;;;8.18;100.00;100973.03;5029174;28;20196;-71
2023/03/22 00:43:50;;;;;;;17.83;12.57;;;;;;;8.17;100.00;100971.31;5026665;28;20194;-73
2023/03/22 00:46:18;;;;;;;17.77;12.60;;;;;;;8.17;100.00;100956.00;5030666;28;20196;-72
2023/03/22 00:48:43;;;;;;;18.73;14.17;;;;;;;8.15;100.00;100961.03;5030575;28;20189;-72
2023/03/22 00:51:09;;;;;;;17.03;12.97;;;;;;;8.16;100.00;100961.94;5042419;28;20693;-70
2023/03/22 00:53:37;;;;;;;20.03;14.43;;;;;;;8.12;100.00;100957.53;5044888;28;20205;-72
2023/03/22 00:56:06;;;;;;;18.53;13.27;;;;;;;8.16;100.00;100960.22;5046030;28;20201;-70
2023/03/22 00:58:42;;;;;;;18.50;14.73;;;;;;;8.19;100.00;100969.66;5025758;28;20189;-70
2023/03/22 01:01:08;;;;;;;19.60;14.47;;;;;;;8.21;100.00;100968.91;5044875;28;20189;-72
2023/03/22 01:03:33;;;;;;;17.67;14.67;;;;;;;8.24;100.00;100960.50;5029705;28;20205;-71
2023/03/22 01:05:59;;;;;;;18.17;14.27;;;;;;;8.28;100.00;100963.19;5030740;28;20316;-71
2023/03/22 01:08:31;;;;;;;21.17;15.57;;;;;;;8.24;100.00;100961.38;5028447;28;20201;-71
2023/03/22 01:10:57;;;;;;;18.70;13.57;;;;;;;8.26;100.00;100961.41;5040668;28;20289;-71
2023/03/22 01:13:22;;;;;;;18.77;14.67;;;;;;;8.25;100.00;100952.88;5025340;28;20328;-71
2023/03/22 01:15:51;;;;;;;21.00;15.00;;;;;;;8.30;100.00;100948.78;5044997;28;20233;-70
2023/03/22 01:18:17;;;;;;;20.00;15.73;;;;;;;8.32;100.00;100952.25;5043330;28;20190;-72
2023/03/22 01:20:43;;;;;;;21.90;15.40;;;;;;;8.34;100.00;100945.50;5033228;28;20608;-71
2023/03/22 01:23:09;;;;;;;19.70;14.23;;;;;;;8.36;100.00;100941.34;5028579;28;20205;-72
2023/03/22 01:25:34;;;;;;;18.37;13.93;;;;;;;8.37;100.00;100940.50;5028802;28;20196;-71
2023/03/22 01:28:01;;;;;;;21.30;15.43;;;;;;;8.44;100.00;100939.84;5046108;28;20219;-71
2023/03/22 01:30:27;;;;;;;19.57;15.10;;;;;;;8.44;100.00;100931.34;5044035;28;20185;-74
2023/03/22 01:32:53;;;;;;;22.40;16.07;;;;;;;8.48;100.00;100930.63;5029626;28;20615;-74
2023/03/22 01:35:19;;;;;;;18.87;13.67;;;;;;;8.48;100.00;100943.38;5031721;28;20182;-72
2023/03/22 01:37:45;;;;;;;17.33;14.17;;;;;;;8.52;100.00;100929.91;5028820;28;20190;-72
2023/03/22 01:40:14;;;;;;;19.30;15.07;;;;;;;8.51;100.00;100920.47;5030228;28;20703;-70
2023/03/22 01:42:40;;;;;;;19.83;15.30;;;;;;;8.58;100.00;100917.31;5028909;28;20367;-71
2023/03/22 01:45:15;;;;;;;24.27;16.53;;;;;;;8.56;100.00;100911.25;5032317;28;20193;-70
2023/03/22 01:47:57;;;;;;;18.07;14.60;;;;;;;8.60;100.00;100905.44;5036773;28;20193;-69
2023/03/22 01:50:24;;;;;;;21.97;15.43;;;;;;;8.61;100.00;100905.47;5025759;28;20187;-71
2023/03/22 01:52:51;;;;;;;19.83;16.17;;;;;;;8.63;100.00;100895.31;5024708;28;20588;-73
2023/03/22 01:55:24;;;;;;;23.03;16.23;;;;;;;8.62;100.00;100897.00;5027309;28;20242;-73
2023/03/22 01:58:16;;;;;;;22.47;16.60;;;;;;;8.66;100.00;100893.72;5036451;28;20221;-70
2023/03/22 02:00:50;;;;;;;21.73;15.67;;;;;;;8.70;100.00;100890.41;5026383;28;20217;-77
2023/03/22 02:03:58;;;;;;;21.63;15.80;;;;;;;8.72;100.00;100882.81;5027766;28;20198;-72
2023/03/22 02:06:25;;;;;;;22.13;16.20;;;;;;;8.73;100.00;100885.41;5038693;28;20243;-71
2023/03/22 02:09:00;;;;;;;25.43;15.80;;;;;;;8.75;100.00;100881.19;5025372;28;20192;-74
2023/03/22 02:11:32;;;;;;;23.03;16.43;;;;;;;8.77;100.00;100876.13;5027984;28;20198;-70
2023/03/22 02:14:17;;;;;;;20.90;16.03;;;;;;;8.84;100.00;100872.94;5031311;28;20215;-71
2023/03/22 02:16:54;;;;;;;23.20;15.77;;;;;;;8.82;100.00;100869.47;5047141;28;20186;-70
2023/03/22 02:19:30;;;;;;;23.70;16.33;;;;;;;8.84;100.00;100867.84;5043487;28;20438;-72
2023/03/22 02:22:20;;;;;;;20.27;15.53;;;;;;;8.86;100.00;100866.16;5029904;28;20218;-71
2023/03/22 02:24:57;;;;;;;19.53;16.03;;;;;;;8.90;100.00;100860.31;5029978;28;20193;-72
2023/03/22 02:27:47;;;;;;;19.53;15.53;;;;;;;8.89;100.00;100867.09;5024023;28;20279;-72
2023/03/22 02:30:28;;;;;;;20.17;15.50;;;;;;;8.91;100.00;100855.25;5026696;28;20224;-71
2023/03/22 02:33:33;;;;;;;21.27;15.90;;;;;;;8.95;100.00;100853.66;5027682;28;20213;-72
2023/03/22 02:36:04;;;;;;;21.27;15.57;;;;;;;8.97;100.00;100841.78;5027913;28;20204;-71
2023/03/22 02:38:45;;;;;;;20.83;14.60;;;;;;;8.96;100.00;100852.81;5022355;28;20186;-72
2023/03/22 02:41:28;;;;;;;19.83;14.97;;;;;;;8.96;100.00;100858.78;5028898;28;20223;-72
2023/03/22 02:43:59;;;;;;;25.07;15.37;;;;;;;8.97;100.00;100850.31;5028200;28;20252;-72
2023/03/22 02:46:42;;;;;;;19.23;14.43;;;;;;;8.96;100.00;100848.59;5042682;28;20185;-73
2023/03/22 02:49:27;;;;;;;19.17;14.87;;;;;;;8.94;100.00;100849.38;5040989;28;20193;-72
2023/03/22 02:52:09;;;;;;;17.40;14.57;;;;;;;8.95;100.00;100838.31;5024730;28;20445;-72
2023/03/22 02:54:51;;;;;;;20.47;14.40;;;;;;;8.94;100.00;100844.25;5042591;28;20616;-72
2023/03/22 02:57:27;;;;;;;20.30;14.23;;;;;;;8.92;100.00;100851.88;5026563;28;20233;-72
2023/03/22 02:59:56;;;;;;;22.23;14.07;;;;;;;8.92;100.00;100845.91;5047272;28;20536;-73
2023/03/22 03:02:22;;;;;;;21.63;15.27;;;;;;;8.94;100.00;100844.25;5041545;28;20675;-72
2023/03/22 03:04:51;;;;;;;18.73;14.20;;;;;;;8.95;100.00;100844.31;5026195;28;20190;-71
2023/03/22 03:07:21;;;;;;;19.73;14.23;;;;;;;8.93;100.00;100837.41;5027438;28;20251;-72
2023/03/22 03:09:47;;;;;;;16.83;13.77;;;;;;;8.95;100.00;100838.31;5022185;28;20198;-72
2023/03/22 03:12:24;;;;;;;18.17;13.93;;;;;;;8.95;100.00;100830.66;5045059;28;20206;-71
2023/03/22 03:14:52;;;;;;;18.73;13.80;;;;;;;8.97;100.00;100832.44;5025741;28;20200;-72
2023/03/22 03:17:55;;;;;;;18.57;13.93;;;;;;;8.95;100.00;100820.44;5028127;28;20185;-72
2023/03/22 03:20:45;;;;;;;21.77;13.33;;;;;;;8.99;100.00;100828.22;5026296;28;20223;-71
2023/03/22 03:23:27;;;;;;;15.67;13.13;;;;;;;8.99;100.00;100825.66;5041969;28;20209;-73
2023/03/22 03:26:12;;;;;;;16.50;13.13;;;;;;;9.03;100.00;100822.34;5037494;28;20205;-72
2023/03/22 03:28:46;;;;;;;17.70;13.23;;;;;;;9.00;100.00;100821.44;5041894;28;20226;-72
2023/03/22 03:31:29;;;;;;;20.37;13.20;;;;;;;9.03;100.00;100822.34;5042787;28;20692;-71
2023/03/22 03:34:05;;;;;;;15.03;12.77;;;;;;;9.05;100.00;100823.28;5028790;28;20197;-72
2023/03/22 03:36:36;;;;;;;17.80;13.07;;;;;;;9.05;100.00;100825.84;5023991;28;20185;-72
2023/03/22 03:39:07;;;;;;;18.27;13.63;;;;;;;9.05;100.00;100814.75;5022372;28;20200;-73
2023/03/22 03:41:33;;;;;;;19.63;13.77;;;;;;;9.05;100.00;100814.75;5044753;28;20213;-72
2023/03/22 03:43:59;;;;;;;19.67;13.83;;;;;;;9.05;100.00;100819.84;5027825;28;20190;-72
2023/03/22 03:46:27;;;;;;;18.57;13.40;;;;;;;9.02;100.00;100815.53;5046701;28;20192;-72
2023/03/22 03:48:56;;;;;;;17.67;13.53;;;;;;;9.05;100.00;100807.09;5011541;28;20284;-72
2023/03/22 03:51:21;;;;;;;18.57;13.07;;;;;;;9.02;100.00;100807.88;5028179;28;20185;-72
2023/03/22 03:53:47;;;;;;;18.13;13.03;;;;;;;9.03;100.00;100813.84;5021577;28;20301;-71
2023/03/22 03:56:13;;;;;;;16.23;13.43;;;;;;;9.03;100.00;100808.75;5027867;28;20594;-71
2023/03/22 03:58:43;;;;;;;21.83;14.13;;;;;;;9.01;100.00;100816.38;5025827;28;20332;-71
2023/03/22 04:01:08;;;;;;;19.30;13.60;;;;;;;9.01;100.00;100816.38;5027520;28;20300;-72
2023/03/22 04:03:34;;;;;;;16.70;13.07;;;;;;;9.01;100.00;100807.81;5044621;28;20263;-72
2023/03/22 04:06:11;;;;;;;17.33;13.47;;;;;;;9.03;100.00;100809.59;5038294;28;20189;-71
2023/03/22 04:08:40;;;;;;;17.23;13.23;;;;;;;9.02;100.00;100817.22;5025205;28;20214;-72
2023/03/22 04:11:06;;;;;;;17.03;13.00;;;;;;;9.02;100.00;100814.66;5038772;28;20559;-71
2023/03/22 04:13:32;;;;;;;19.03;13.03;;;;;;;9.02;100.00;100810.41;5027821;28;20217;-71
2023/03/22 04:16:01;;;;;;;19.47;12.73;;;;;;;9.02;100.00;100812.97;5023758;28;20324;-72
2023/03/22 04:18:30;;;;;;;15.20;12.27;;;;;;;9.04;100.00;100806.19;5028736;28;20608;-72
2023/03/22 04:20:59;;;;;;;22.17;14.70;;;;;;;9.06;100.00;100807.13;5026482;28;20762;-72
2023/03/22 04:23:27;;;;;;;17.20;13.23;;;;;;;9.06;100.00;100791.78;5025661;28;20357;-73
2023/03/22 04:25:53;;;;;;;15.73;12.60;;;;;;;9.04;100.00;100796.00;5039208;28;20229;-72
2023/03/22 04:28:32;;;;;;;18.77;13.27;;;;;;;9.01;100.00;100790.81;5025185;28;20365;-72
2023/03/22 04:30:58;;;;;;;21.50;13.27;;;;;;;9.04;100.00;100795.16;5027078;28;20192;-73
2023/03/22 04:34:04;;;;;;;18.57;12.83;;;;;;;9.03;100.00;100788.31;5027019;28;20202;-73
2023/03/22 04:36:44;;;;;;;17.47;13.43;;;;;;;9.01;100.00;100793.38;5026443;28;20606;-73
2023/03/22 04:39:20;;;;;;;18.90;12.73;;;;;;;9.03;100.00;100790.88;5022756;28;21063;-72
2023/03/22 04:41:54;;;;;;;15.20;12.50;;;;;;;9.04;100.00;100793.44;5043405;28;20224;-72
2023/03/22 04:44:21;;;;;;;16.63;13.03;;;;;;;9.04;100.00;100790.03;5026008;28;20181;-71
2023/03/22 04:46:49;;;;;;;18.87;13.03;;;;;;;9.05;100.00;100789.19;5021408;28;20182;-72
2023/03/22 04:49:15;;;;;;;18.37;13.43;;;;;;;9.05;100.00;100786.66;5025293;28;20193;-72
2023/03/22 04:51:41;;;;;;;18.83;12.77;;;;;;;9.06;100.00;100781.59;5008174;28;20263;-71
2023/03/22 04:54:22;;;;;;;17.03;11.67;;;;;;;9.07;100.00;100782.47;5023243;28;20248;-72
2023/03/22 04:56:48;;;;;;;17.80;12.77;;;;;;;9.08;100.00;100785.03;5027179;28;20195;-71
2023/03/22 04:59:19;;;;;;;17.10;12.00;;;;;;;9.10;100.00;100778.28;5024114;28;20265;-73
2023/03/22 05:01:50;;;;;;;15.63;11.87;;;;;;;9.10;100.00;100777.41;5023756;28;20210;-73
2023/03/22 05:04:19;;;;;;;16.97;10.60;;;;;;;9.09;100.00;100776.56;5027278;28;20190;-72
2023/03/22 05:06:46;;;;;;;14.07;11.27;;;;;;;9.07;100.00;100783.31;5027167;28;20200;-71
2023/03/22 05:09:21;;;;;;;13.47;11.10;;;;;;;9.07;100.00;100777.34;5026209;28;20177;-72
2023/03/22 05:11:48;;;;;;;19.27;11.53;;;;;;;9.03;100.00;100773.84;5026577;28;20207;-73
2023/03/22 05:14:25;;;;;;;15.10;10.63;;;;;;;9.05;100.00;100772.19;5023563;28;20193;-71
2023/03/22 05:16:50;;;;;;;16.13;11.60;;;;;;;9.05;100.00;100773.88;5043742;28;20721;-73
2023/03/22 05:19:16;;;;;;;18.37;12.70;;;;;;;9.03;100.00;100771.28;5026825;28;20210;-72
2023/03/22 05:21:45;;;;;;;17.03;11.67;;;;;;;9.02;100.00;100769.56;5026213;28;20210;-72
2023/03/22 05:24:11;;;;;;;16.70;11.50;;;;;;;8.99;100.00;100766.91;5044259;28;20614;-71
2023/03/22 05:26:41;;;;;;;14.77;11.30;;;;;;;8.99;100.00;100768.63;5021841;28;20190;-72
2023/03/22 05:29:09;;;;;;;15.43;11.67;;;;;;;8.98;100.00;100762.66;5028372;28;20569;-71
2023/03/22 05:32:05;;;;;;;16.17;12.00;;;;;;;9.00;100.00;100766.13;5044769;28;20213;-72
2023/03/22 05:34:34;;;;;;;16.90;11.27;;;;;;;9.02;100.00;100772.13;5048588;28;20659;-71
2023/03/22 05:37:03;;;;;;;16.77;11.93;;;;;;;9.05;100.00;100772.19;5025413;28;20274;-72
2023/03/22 05:39:36;;;;;;;17.20;12.40;;;;;;;9.09;100.00;100763.78;5030015;28;20224;-72
2023/03/22 05:42:02;;;;;;;18.10;12.60;;;;;;;9.10;100.00;100768.06;5033009;28;20210;-71
2023/03/22 05:44:28;;;;;;;12.83;10.90;;;;;;;9.13;100.00;100773.22;5026537;28;20195;-71
2023/03/22 05:47:05;;;;;;;18.73;11.10;;;;;;;9.13;100.00;100772.38;5029763;28;20193;-71
2023/03/22 05:49:37;;;;;;;14.47;11.47;;;;;;;9.14;100.00;100771.53;5030167;28;20313;-72
2023/03/22 05:52:04;;;;;;;14.63;11.53;;;;;;;9.16;100.00;100770.75;5027810;28;20305;-73
2023/03/22 05:54:45;;;;;;;17.07;10.90;;;;;;;9.15;100.00;100779.25;5030666;28;20251;-73
2023/03/22 05:57:10;;;;;;;17.40;11.47;;;;;;;9.19;100.00;100777.63;5026206;28;20668;-73
2023/03/22 05:59:36;;;;;;;17.70;11.17;;;;;;;9.19;100.00;100777.63;5032335;28;20312;-72
2023/03/22 06:02:02;;;;;;;16.00;11.03;;;;;;;9.21;100.00;100768.31;5029373;28;20201;-72
2023/03/22 06:04:29;;;;;;;16.20;11.23;;;;;;;9.20;100.00;100780.22;5028478;28;20190;-72
2023/03/22 06:07:06;;;;;;;15.63;11.20;;;;;;;9.23;100.00;100775.19;5015993;28;20201;-74
2023/03/22 06:09:39;;;;;;;16.20;11.07;;;;;;;9.24;100.00;100776.91;5030935;28;20423;-73
2023/03/22 06:12:08;;;;;;;15.53;11.57;;;;;;;9.26;100.00;100785.47;5030358;28;20244;-73
2023/03/22 06:14:34;;;;;;;16.10;10.90;;;;;;;9.29;100.00;100788.09;5013895;28;20201;-72
2023/03/22 06:17:13;;;;;;;12.97;11.07;;;;;;;9.29;100.00;100788.09;5015862;28;20186;-71
2023/03/22 06:19:39;;;;;;;18.07;11.20;;;;;;;9.32;100.00;100789.88;5032966;28;20210;-73
2023/03/22 06:22:06;;;;;;;13.87;10.80;;;;;;;9.35;100.00;100788.22;5014965;28;20214;-73
2023/03/22 06:24:34;;;;;;;13.97;10.57;;;;;;;9.41;100.00;100790.06;5027870;28;20322;-73
2023/03/22 06:27:00;;;;;;;16.57;10.90;;;;;;;9.44;100.00;100779.94;5025937;28;20205;-72
2023/03/22 06:29:26;;;;;;;13.07;10.30;;;;;;;9.51;100.00;100777.56;5011479;28;20210;-73
2023/03/22 06:31:55;;;;;;;17.00;10.27;;;;;;;9.60;100.00;100782.00;5029414;28;20219;-73
2023/03/22 06:34:20;;;;;;;13.50;10.63;;;;;;;9.62;100.00;100770.09;5028377;28;20289;-74
2023/03/22 06:36:46;;;;;;;16.43;11.47;;;;;;;9.64;100.00;100763.34;5013837;28;20233;-74
2023/03/22 06:39:16;;;;;;;15.57;11.03;;;;;;;9.69;100.00;100762.63;5027001;28;20213;-73
2023/03/22 06:41:43;;;;;;;15.70;10.27;;;;;;;9.79;100.00;100759.41;5017080;28;20766;-71
2023/03/22 06:44:09;;;;;;;17.93;11.97;;;;;;;9.87;100.00;100762.97;5028682;28;20217;-71
2023/03/22 06:46:50;;;;;;;16.60;11.67;;;;;;;9.96;100.00;100767.44;5041724;28;20663;-74
2023/03/22 06:49:34;;;;;;;15.83;10.83;;;;;;;9.99;100.00;100773.47;5042946;28;20216;-73
2023/03/22 06:52:01;;;;;;;15.60;11.63;;;;;;;10.06;100.00;100762.56;5024593;28;20224;-72
2023/03/22 06:54:26;;;;;;;14.23;10.17;;;;;;;10.10;100.00;100768.59;5030418;28;20683;-74
2023/03/22 06:56:52;;;;;;;15.27;11.20;;;;;;;10.16;100.00;100768.72;5027601;28;20198;-73
2023/03/22 06:59:18;;;;;;;17.17;10.90;;;;;;;10.20;100.00;100770.50;5027822;28;20696;-72
2023/03/22 07:01:43;;;;;;;14.07;10.43;;;;;;;10.19;100.00;100758.56;5030766;28;20724;-73
2023/03/22 07:04:10;;;;;;;16.23;11.27;;;;;;;10.18;100.00;100764.50;5025516;28;20789;-73
2023/03/22 07:06:36;;;;;;;13.40;10.53;;;;;;;10.19;100.00;100764.50;5024722;28;20194;-73
2023/03/22 07:09:02;;;;;;;14.00;10.13;;;;;;;10.21;100.00;100764.56;5027022;28;20190;-72
2023/03/22 07:11:31;;;;;;;16.17;11.27;;;;;;;10.22;100.00;100763.72;5024399;28;20308;-73
2023/03/22 07:13:59;;;;;;;13.97;11.07;;;;;;;10.22;100.00;100762.03;5025407;28;20193;-72
2023/03/22 07:16:30;;;;;;;15.37;11.90;;;;;;;10.28;100.00;100764.69;5028690;28;20205;-73
2023/03/22 07:18:58;;;;;;;16.53;11.80;;;;;;;10.34;100.00;100758.84;5038733;28;20770;-73
2023/03/22 07:21:24;;;;;;;16.30;10.53;;;;;;;10.45;100.00;100760.75;5024766;28;20292;-73
2023/03/22 07:23:55;;;;;;;15.43;10.63;;;;;;;10.57;100.00;100749.88;5028047;28;20642;-73
2023/03/22 07:26:25;;;;;;;14.43;10.80;;;;;;;10.59;100.00;100748.19;5026415;28;20194;-73
2023/03/22 07:28:52;;;;;;;15.67;11.53;;;;;;;10.53;100.00;100755.78;5029137;28;20618;-73
2023/03/22 07:31:21;;;;;;;15.13;10.87;;;;;;;10.51;100.00;100758.31;5043307;28;20185;-72
2023/03/22 07:34:10;;;;;;;16.17;10.83;;;;;;;10.48;100.00;100748.03;5031487;28;20568;-73
2023/03/22 07:36:55;;;;;;;16.03;11.10;;;;;;;10.48;100.00;100747.16;5051615;28;20203;-72
2023/03/22 07:39:23;;;;;;;15.47;11.73;;;;;;;10.49;100.00;100741.19;5012460;28;20218;-73
2023/03/22 07:41:49;;;;;;;16.13;11.70;;;;;;;10.50;100.00;100741.22;5029597;28;20202;-72
2023/03/22 07:44:24;;;;;;;14.73;11.10;;;;;;;10.54;100.00;100743.00;5043676;28;20197;-71
2023/03/22 07:47:25;;;;;;;17.90;12.30;;;;;;;10.60;100.00;100737.16;5040672;28;20206;-72
2023/03/22 07:50:26;;;;;;;14.40;11.73;;;;;;;10.69;100.00;100730.47;5020540;28;20202;-71
2023/03/22 07:52:54;;;;;;;16.03;11.37;;;;;;;10.73;100.00;100739.94;5022044;28;20356;-71
2023/03/22 07:55:20;;;;;;;14.80;11.33;;;;;;;10.84;100.00;100727.31;5023863;28;20296;-72
2023/03/22 07:57:45;;;;;;;17.60;12.30;;;;;;;10.97;100.00;100724.09;5041462;28;20281;-73
2023/03/22 08:00:12;;;;;;;14.70;12.03;;;;;;;11.09;100.00;100722.59;5010084;28;20584;-72
2023/03/22 08:03:01;;;;;;;15.27;12.07;;;;;;;11.14;100.00;100722.63;5027876;28;20252;-72
2023/03/22 08:05:51;;;;;;;17.17;12.23;;;;;;;11.17;100.00;100723.56;5027639;28;20231;-72
2023/03/22 08:08:17;;;;;;;16.63;12.43;;;;;;;11.13;100.00;100715.81;5024926;28;20194;-72
2023/03/22 08:10:48;;;;;;;16.03;12.67;;;;;;;11.16;100.00;100718.41;5023798;28;20674;-73
2023/03/22 08:13:13;;;;;;;16.77;12.10;;;;;;;11.19;100.00;100708.19;5008295;28;20221;-72
2023/03/22 08:15:39;;;;;;;17.57;12.10;;;;;;;11.31;100.00;100698.13;5026503;28;20686;-72
2023/03/22 08:18:07;;;;;;;15.93;12.10;;;;;;;11.38;100.00;100692.25;5024476;28;20194;-71
2023/03/22 08:20:37;;;;;;;17.10;13.00;;;;;;;11.41;100.00;100687.16;5023160;28;20363;-71
2023/03/22 08:23:11;;;;;;;16.93;12.57;;;;;;;11.45;100.00;100676.97;5023349;28;20221;-71
2023/03/22 08:26:11;;;;;;;17.53;12.93;;;;;;;11.54;100.00;100681.34;4962979;28;20215;-71
2023/03/22 08:28:37;;;;;;;13.83;12.03;;;;;;;11.63;100.00;100663.53;5007694;28;20225;-72
2023/03/22 08:31:15;;;;;;;16.60;12.40;;;;;;;11.71;100.00;100657.66;5019936;28;20246;-71
2023/03/22 08:33:43;;;;;;;13.63;11.57;;;;;;;11.88;100.00;100661.28;5038019;28;20221;-73
2023/03/22 08:36:12;;;;;;;16.93;12.87;;;;;;;11.90;100.00;100653.59;5022339;28;20693;-71
2023/03/22 08:38:44;;;;;;;15.63;12.47;;;;;;;11.96;100.00;100651.09;5011438;28;20182;-73
2023/03/22 08:41:12;;;;;;;17.07;12.17;;;;;;;11.97;100.00;100656.25;5024214;28;20214;-72
2023/03/22 08:43:38;;;;;;;14.13;11.40;;;;;;;12.09;100.00;100643.56;5039408;28;20575;-73
2023/03/22 08:46:04;;;;;;;14.30;12.07;;;;;;;12.04;100.00;100636.66;5030122;28;20192;-71
2023/03/22 08:48:30;;;;;;;17.43;12.63;;;;;;;12.15;100.00;100633.34;5021118;28;20205;-73
2023/03/22 08:51:17;;;;;;;16.03;11.93;;;;;;;12.30;100.00;100627.50;5030323;28;20240;-72
2023/03/22 08:53:58;;;;;;;16.43;12.17;;;;;;;12.63;100.00;100622.63;5026609;28;20201;-72
2023/03/22 08:57:03;;;;;;;14.83;11.60;;;;;;;13.33;100.00;100621.34;4965149;28;20221;-72
2023/03/22 08:59:56;;;;;;;15.93;11.37;;;;;;;13.33;100.00;100618.78;4933183;28;20660;-73
2023/03/22 09:02:34;;;;;;;12.57;10.30;;;;;;;13.43;100.00;100623.97;5007053;28;20228;-73
2023/03/22 09:05:00;;;;;;;11.47;10.27;;;;;;;13.40;100.00;100623.13;5040960;28;20557;-72
2023/03/22 09:07:26;;;;;;;14.40;10.10;;;;;;;13.46;100.00;100623.13;5026772;28;20309;-72
2023/03/22 09:10:10;;;;;;;12.60;9.83;;;;;;;13.29;100.00;100628.19;5027004;28;20186;-73
2023/03/22 09:12:39;;;;;;;13.83;10.10;;;;;;;13.53;100.00;100622.31;5013614;28;20224;-72
2023/03/22 09:15:06;;;;;;;14.57;10.30;;;;;;;13.91;100.00;100618.13;5023776;28;20221;-72
2023/03/22 09:17:32;;;;;;;11.77;9.63;;;;;;;14.15;100.00;100608.75;5027842;28;20569;-72
2023/03/22 09:19:58;;;;;;;12.13;9.30;;;;;;;13.99;100.00;100601.84;5022028;28;20218;-74
2023/03/22 09:22:23;;;;;;;11.33;9.10;;;;;;;14.29;100.00;100596.78;5025642;28;22386;-73
2023/03/22 09:24:49;;;;;;;12.20;8.27;;;;;;;14.51;100.00;100571.84;5026754;28;20275;-74
2023/03/22 09:27:14;;;;;;;11.77;8.13;;;;;;;15.57;100.00;100521.66;5026003;28;20364;-72
2023/03/22 09:29:41;;;;;;;10.87;7.40;;;;;;;17.12;100.00;100316.66;5037141;28;20277;-73
2023/03/22 09:32:11;;;;;;;8.97;7.03;;;;;;;17.46;100.00;100233.28;5028170;28;20201;-73
2023/03/22 09:34:38;;;;;;;8.63;6.57;;;;;;;18.20;100.00;100141.09;5016149;28;20740;-73
2023/03/22 09:37:05;;;;;;;9.63;6.40;;;;;;;18.78;100.00;100072.22;5026198;28;20185;-73
2023/03/22 09:39:52;;;;;;;10.15;6.47;;;;;;;20.83;98.14;99872.41;5021370;28;20297;-75
2023/03/22 09:42:36;;;;;;;8.93;6.30;;;;;;;19.54;100.00;99944.56;5025883;28;20304;-72
2023/03/22 09:45:05;;;;;;;8.70;6.40;;;;;;;19.88;100.00;99907.94;5028208;28;20275;-71
2023/03/22 09:47:40;;;;;;;9.97;6.50;;;;;;;18.29;100.00;100089.88;5028056;28;20231;-72
2023/03/22 09:50:17;;;;;;;10.47;6.33;;;;;;;16.47;100.00;100237.47;5050999;28;20197;-73
2023/03/22 09:52:43;;;;;;;8.93;5.83;;;;;;;15.51;100.00;100372.00;5045608;28;20216;-69
2023/03/22 09:55:38;;;;;;;7.40;5.40;;;;;;;15.34;100.00;100422.88;5035956;28;20190;-72
2023/03/22 09:58:06;;;;;;;8.17;5.03;;;;;;;15.44;100.00;100442.59;5053067;28;20232;-71
2023/03/22 10:00:49;;;;;;;7.73;5.13;;;;;;;15.95;100.00;100400.84;5021254;28;20218;-72
2023/03/22 10:03:43;;;;;;;8.53;4.50;;;;;;;17.21;100.00;100200.06;5042588;28;20237;-74
2023/03/22 10:06:19;;;;;;;6.50;4.23;;;;;;;17.50;100.00;100121.00;5049466;28;20197;-71
2023/03/22 10:09:32;;;;;;;10.57;4.23;;;;;;;17.95;100.00;100096.72;5044451;28;20212;-73
2023/03/22 10:12:12;;;;;;;8.47;3.90;;;;;;;15.86;100.00;100182.31;5000126;28;20253;-72
2023/03/22 10:14:40;;;;;;;8.10;3.90;;;;;;;15.36;100.00;100263.75;5039994;28;20267;-71
2023/03/22 10:17:13;;;;;;;7.07;3.90;;;;;;;15.19;100.00;100320.59;5030618;28;20244;-71
2023/03/22 10:20:08;;;;;;;7.67;3.93;;;;;;;15.24;100.00;100372.19;5044251;28;20205;-70
2023/03/22 10:22:39;;;;;;;5.93;3.70;;;;;;;15.34;100.00;100381.59;5038449;28;20653;-72
2023/03/22 10:25:07;;;;;;;5.13;3.47;;;;;;;14.90;100.00;100404.19;5040347;28;20666;-71
2023/03/22 10:27:33;;;;;;;8.33;3.60;;;;;;;15.05;100.00;100404.97;5041690;28;20718;-70
2023/03/22 10:30:05;;;;;;;7.40;3.90;;;;;;;15.11;100.00;100397.19;5042820;28;20651;-71
2023/03/22 10:32:51;;;;;;;6.50;3.40;;;;;;;15.11;100.00;100420.38;5045472;28;20315;-70
2023/03/22 10:35:17;;;;;;;8.10;3.70;;;;;;;14.96;100.00;100433.38;5038347;28;20228;-71
2023/03/22 10:37:46;;;;;;;6.83;3.23;;;;;;;14.77;100.00;100393.06;5042625;28;20593;-72
2023/03/22 10:40:27;;;;;;;6.37;2.83;;;;;;;14.99;100.00;100394.69;5038943;28;20226;-71
2023/03/22 10:42:57;;;;;;;3.23;2.20;;;;;;;15.10;100.00;100390.31;5037510;28;20278;-72
2023/03/22 10:45:26;;;;;;;7.50;2.67;;;;;;;14.86;100.00;100385.31;5026866;28;20245;-74
2023/03/22 10:47:58;;;;;;;4.33;2.77;;;;;;;14.74;100.00;100385.34;5044886;28;20248;-75
2023/03/22 10:50:36;;;;;;;6.70;2.90;;;;;;;14.51;100.00;100396.63;5037554;28;20209;-73
2023/03/22 10:53:11;;;;;;;5.10;2.50;;;;;;;14.47;100.00;100416.41;5042707;28;20216;-71
2023/03/22 10:55:38;;;;;;;5.37;2.47;;;;;;;14.42;100.00;100420.72;5023443;28;20204;-70
2023/03/22 10:58:12;;;;;;;7.07;2.70;;;;;;;14.48;100.00;100419.81;5047597;28;20259;-68
2023/03/22 11:00:45;;;;;;;5.47;2.50;;;;;;;14.61;100.00;100413.78;5042424;28;20252;-69
2023/03/22 11:03:36;;;;;;;6.87;2.57;;;;;;;14.55;100.00;100408.66;5042223;28;20229;-69
2023/03/22 11:06:13;;;;;;;7.33;2.63;;;;;;;14.49;100.00;100431.84;5024156;28;20190;-71
2023/03/22 11:08:44;;;;;;;6.30;2.60;;;;;;;14.59;100.00;100382.00;5026043;28;20678;-71
2023/03/22 11:11:33;;;;;;;5.73;2.60;;;;;;;14.53;100.00;100398.34;5043619;28;20620;-69
2023/03/22 11:14:14;;;;;;;5.47;2.23;;;;;;;14.42;100.00;100431.03;5041286;28;20204;-69
2023/03/22 11:16:51;;;;;;;5.00;2.37;;;;;;;14.56;100.00;100407.78;5042042;28;20224;-72
2023/03/22 11:19:26;;;;;;;7.77;2.70;;;;;;;17.29;100.00;100082.59;5041894;28;20198;-69
2023/03/22 11:21:58;;;;;;;5.80;2.20;;;;;;;17.48;100.00;99920.84;5038259;28;20237;-72
2023/03/22 11:24:26;;;;;;;5.20;1.93;;;;;;;17.11;100.00;99916.50;5041185;28;20186;-72
2023/03/22 11:27:03;;;;;;;5.83;2.53;;;;;;;17.54;100.00;100031.19;5041211;28;20185;-72
2023/03/22 11:29:40;;;;;;;4.77;2.37;;;;;;;17.86;98.45;99900.06;5033129;28;20196;-71
2023/03/22 11:32:20;;;;;;;5.77;2.40;;;;;;;16.97;100.00;99988.38;5012421;28;20209;-72